createdAt,value
2019-06-27T00:01:39.461Z,4.40
2019-06-27T00:04:09.029Z,5.00
2019-06-27T00:06:39.092Z,5.20
2019-06-27T00:09:11.172Z,5.50
2019-06-27T00:11:40.579Z,5.00
2019-06-27T00:14:10.018Z,4.43
2019-06-27T00:16:39.464Z,5.70
2019-06-27T00:19:09.268Z,5.47
2019-06-27T00:21:39.262Z,5.20
2019-06-27T00:24:09.233Z,5.65
2019-06-27T00:26:39.275Z,5.72
2019-06-27T00:29:09.362Z,5.60
2019-06-27T00:31:39.262Z,6.20
2019-06-27T00:34:09.336Z,7.27
2019-06-27T00:36:39.315Z,6.50
2019-06-27T00:39:09.362Z,6.07
2019-06-27T00:41:39.401Z,6.27
2019-06-27T00:44:09.420Z,6.40
2019-06-27T00:46:39.514Z,5.87
2019-06-27T00:49:10.063Z,5.40
2019-06-27T00:51:39.603Z,6.07
2019-06-27T00:54:09.569Z,5.70
2019-06-27T00:56:39.660Z,5.93
2019-06-27T00:59:09.624Z,5.10
2019-06-27T01:01:39.671Z,5.67
2019-06-27T01:04:09.690Z,5.60
2019-06-27T01:06:39.818Z,5.80
2019-06-27T01:09:09.861Z,5.70
2019-06-27T01:11:39.799Z,6.53
2019-06-27T01:14:09.908Z,5.22
2019-06-27T01:16:39.915Z,5.27
2019-06-27T01:19:10.319Z,5.67
2019-06-27T01:21:40.138Z,5.50
2019-06-27T01:24:09.940Z,5.43
2019-06-27T01:26:39.958Z,5.00
2019-06-27T01:29:12.947Z,6.07
2019-06-27T01:31:42.362Z,5.60
2019-06-27T01:34:11.774Z,5.93
2019-06-27T01:36:41.160Z,5.63
2019-06-27T01:39:10.550Z,6.00
2019-06-27T01:41:40.211Z,5.93
2019-06-27T01:44:29.121Z,6.20
2019-06-27T01:46:58.781Z,5.70
2019-06-27T01:49:28.189Z,5.77
2019-06-27T01:51:57.642Z,5.80
2019-06-27T01:54:27.014Z,5.23
2019-06-27T01:56:56.488Z,4.90
2019-06-27T01:59:25.869Z,5.27
2019-06-27T02:01:55.234Z,5.33
2019-06-27T02:04:24.664Z,5.85
2019-06-27T02:06:54.034Z,5.43
2019-06-27T02:09:23.421Z,5.27
2019-06-27T02:11:52.838Z,7.40
2019-06-27T02:14:22.198Z,7.12
2019-06-27T02:16:51.611Z,7.53
2019-06-27T02:19:21.356Z,7.70
2019-06-27T02:21:50.791Z,9.47
2019-06-27T02:24:20.189Z,8.27
2019-06-27T02:26:49.624Z,8.43
2019-06-27T02:29:18.990Z,9.50
2019-06-27T02:31:48.386Z,7.57
2019-06-27T02:34:17.738Z,6.90
2019-06-27T02:36:47.155Z,6.87
2019-06-27T02:39:16.558Z,7.07
2019-06-27T02:41:45.885Z,6.37
2019-06-27T02:44:15.279Z,6.47
2019-06-27T02:46:44.690Z,7.30
2019-06-27T02:49:14.080Z,7.00
2019-06-27T02:51:43.469Z,7.83
2019-06-27T02:54:12.884Z,7.27
2019-06-27T02:56:42.309Z,7.63
2019-06-27T02:59:11.695Z,8.07
2019-06-27T03:01:41.113Z,9.60
2019-06-27T03:04:11.167Z,9.50
2019-06-27T03:06:41.139Z,7.83
2019-06-27T03:09:11.295Z,7.67
2019-06-27T03:11:41.285Z,7.63
2019-06-27T03:14:11.407Z,8.00
2019-06-27T03:16:41.416Z,7.63
2019-06-27T03:19:11.431Z,7.40
2019-06-27T03:21:41.404Z,7.30
2019-06-27T03:24:11.460Z,7.83
2019-06-27T03:26:41.497Z,7.87
2019-06-27T03:29:11.433Z,8.07
2019-06-27T03:31:41.525Z,8.07
2019-06-27T03:34:11.555Z,8.18
2019-06-27T03:36:41.753Z,7.15
2019-06-27T03:39:11.711Z,7.87
2019-06-27T03:41:42.028Z,7.58
2019-06-27T03:44:11.734Z,7.50
2019-06-27T03:46:41.712Z,7.33
2019-06-27T03:49:11.715Z,7.60
2019-06-27T03:51:41.778Z,6.70
2019-06-27T03:54:11.868Z,6.80
2019-06-27T03:56:41.959Z,6.20
2019-06-27T03:59:13.588Z,8.07
2019-06-27T04:01:43.253Z,8.57
2019-06-27T04:04:12.696Z,7.37
2019-06-27T04:06:42.077Z,8.00
2019-06-27T04:09:12.089Z,7.67
2019-06-27T04:11:42.091Z,7.47
2019-06-27T04:14:12.186Z,6.40
2019-06-27T04:16:42.207Z,6.90
2019-06-27T04:19:12.257Z,7.10
2019-06-27T04:21:42.188Z,7.83
2019-06-27T04:24:12.284Z,8.73
2019-06-27T04:26:42.331Z,7.97
2019-06-27T04:29:32.083Z,8.00
2019-06-27T04:31:43.526Z,7.40
2019-06-27T04:34:12.783Z,8.77
2019-06-27T04:36:42.449Z,8.08
2019-06-27T04:39:12.530Z,8.40
2019-06-27T04:41:42.506Z,7.70
2019-06-27T04:44:12.455Z,9.10
2019-06-27T04:46:42.827Z,9.60
2019-06-27T04:49:13.803Z,8.48
2019-06-27T04:51:43.526Z,9.70
2019-06-27T04:54:12.977Z,9.93
2019-06-27T04:56:42.578Z,10.08
2019-06-27T04:59:12.688Z,9.23
2019-06-27T05:01:42.675Z,8.00
2019-06-27T05:04:12.719Z,7.60
2019-06-27T05:06:42.730Z,6.40
2019-06-27T05:09:12.677Z,6.53
2019-06-27T05:11:42.846Z,7.40
2019-06-27T05:14:12.861Z,11.37
2019-06-27T05:16:42.892Z,10.63
2019-06-27T05:19:12.950Z,8.80
2019-06-27T05:21:42.958Z,10.40
2019-06-27T05:24:13.030Z,8.07
2019-06-27T05:26:43.008Z,8.53
2019-06-27T05:29:12.994Z,9.03
2019-06-27T05:31:43.000Z,9.27
2019-06-27T05:34:13.177Z,8.70
2019-06-27T05:36:43.239Z,12.15
2019-06-27T05:39:13.263Z,12.33
2019-06-27T05:41:43.151Z,13.60
2019-06-27T05:44:13.213Z,14.27
2019-06-27T05:46:43.232Z,12.83
2019-06-27T05:49:13.349Z,12.53
2019-06-27T05:51:43.324Z,12.97
2019-06-27T05:54:13.360Z,12.37
2019-06-27T05:56:43.413Z,13.22
2019-06-27T05:59:13.498Z,15.35
2019-06-27T06:01:43.462Z,13.58
2019-06-27T06:04:13.512Z,12.40
2019-06-27T06:06:43.482Z,11.67
2019-06-27T06:09:13.637Z,12.27
2019-06-27T06:11:43.549Z,14.00
2019-06-27T06:14:13.542Z,12.17
2019-06-27T06:16:43.598Z,10.10
2019-06-27T06:19:13.692Z,9.23
2019-06-27T06:21:43.731Z,8.63
2019-06-27T06:24:13.736Z,8.30
2019-06-27T06:26:43.793Z,9.47
2019-06-27T06:29:13.940Z,9.83
2019-06-27T06:31:49.073Z,9.87
2019-06-27T06:34:17.159Z,10.13
2019-06-27T06:36:46.593Z,10.10
2019-06-27T06:39:16.037Z,9.17
2019-06-27T06:41:45.451Z,8.67
2019-06-27T06:44:14.868Z,7.70
2019-06-27T06:46:44.280Z,7.27
2019-06-27T06:49:14.038Z,7.73
2019-06-27T06:51:44.027Z,7.53
2019-06-27T06:54:14.068Z,8.00
2019-06-27T06:56:44.597Z,8.40
2019-06-27T06:59:14.519Z,7.20
2019-06-27T07:01:45.771Z,5.77
2019-06-27T07:04:15.372Z,5.43
2019-06-27T07:06:44.760Z,5.33
2019-06-27T07:09:14.580Z,7.07
2019-06-27T07:11:44.697Z,8.30
2019-06-27T07:14:14.586Z,8.87
2019-06-27T07:16:44.738Z,9.15
2019-06-27T07:19:14.718Z,6.37
2019-06-27T07:21:44.768Z,6.10
2019-06-27T07:24:14.788Z,6.27
2019-06-27T07:26:44.853Z,6.47
2019-06-27T07:29:14.832Z,7.00
2019-06-27T07:31:44.848Z,7.67
2019-06-27T07:34:14.887Z,7.10
2019-06-27T07:36:44.865Z,7.30
2019-06-27T07:39:14.890Z,7.13
2019-06-27T07:41:44.905Z,6.70
2019-06-27T07:44:14.972Z,5.57
2019-06-27T07:46:45.117Z,7.45
2019-06-27T07:49:15.127Z,7.30
2019-06-27T07:51:45.030Z,7.20
2019-06-27T07:54:15.136Z,7.78
2019-06-27T07:56:46.293Z,7.20
2019-06-27T07:59:15.997Z,7.80
2019-06-27T08:01:45.461Z,6.53
2019-06-27T08:04:15.303Z,5.80
2019-06-27T08:06:45.605Z,6.87
2019-06-27T08:09:15.376Z,6.20
2019-06-27T08:11:45.446Z,5.60
2019-06-27T08:14:15.291Z,6.40
2019-06-27T08:16:45.399Z,5.80
2019-06-27T08:19:15.563Z,7.40
2019-06-27T08:21:45.398Z,4.97
2019-06-27T08:24:15.490Z,4.72
2019-06-27T08:26:45.478Z,5.87
2019-06-27T08:29:15.468Z,5.77
2019-06-27T08:31:51.255Z,5.47
2019-06-27T08:34:16.751Z,5.08
2019-06-27T08:36:46.118Z,4.97
2019-06-27T08:39:15.605Z,4.17
2019-06-27T08:41:45.634Z,4.67
2019-06-27T08:44:15.691Z,5.92
2019-06-27T08:46:45.796Z,4.66
2019-06-27T08:49:15.670Z,4.72
2019-06-27T08:51:45.837Z,5.48
2019-06-27T08:54:15.713Z,4.72
2019-06-27T08:56:45.771Z,4.83
2019-06-27T08:59:15.926Z,4.76
2019-06-27T09:01:45.959Z,4.74
2019-06-27T09:04:15.842Z,4.55
2019-06-27T09:06:46.049Z,4.92
2019-06-27T09:09:16.033Z,4.66
2019-06-27T09:11:46.075Z,4.33
2019-06-27T09:14:16.112Z,4.08
2019-06-27T09:16:46.886Z,4.45
2019-06-27T09:19:16.431Z,4.25
2019-06-27T09:21:46.144Z,4.28
2019-06-27T09:24:16.206Z,4.60
2019-06-27T09:26:46.152Z,4.72
2019-06-27T09:29:16.425Z,4.33
2019-06-27T09:31:46.198Z,4.65
2019-06-27T09:34:16.247Z,4.30
2019-06-27T09:36:46.242Z,4.65
2019-06-27T09:39:16.463Z,3.80
2019-06-27T09:41:46.355Z,4.10
2019-06-27T09:44:16.437Z,4.50
2019-06-27T09:46:46.606Z,4.34
2019-06-27T09:49:16.597Z,4.12
2019-06-27T09:51:46.636Z,3.90
2019-06-27T09:54:17.718Z,3.40
2019-06-27T09:56:47.097Z,4.20
2019-06-27T09:59:16.914Z,4.00
2019-06-27T10:01:46.813Z,3.55
2019-06-27T10:04:16.831Z,4.42
2019-06-27T10:06:46.962Z,3.76
2019-06-27T10:09:16.822Z,4.12
2019-06-27T10:11:47.022Z,3.80
2019-06-27T10:14:16.923Z,4.10
2019-06-27T10:16:47.197Z,3.52
2019-06-27T10:19:17.167Z,3.52
2019-06-27T10:21:47.351Z,3.68
2019-06-27T10:24:17.295Z,3.50
2019-06-27T10:26:47.509Z,3.25
2019-06-27T10:29:18.171Z,3.18
2019-06-27T10:31:48.129Z,3.60
2019-06-27T10:34:17.472Z,2.98
2019-06-27T10:36:47.473Z,4.00
2019-06-27T10:39:17.422Z,3.67
2019-06-27T10:41:47.430Z,2.90
2019-06-27T10:44:17.405Z,3.72
2019-06-27T10:46:47.501Z,4.15
2019-06-27T10:49:17.445Z,3.90
2019-06-27T10:51:47.461Z,3.80
2019-06-27T10:54:17.530Z,4.00
2019-06-27T10:56:48.449Z,3.70
2019-06-27T10:59:17.807Z,4.08
2019-06-27T11:01:47.602Z,3.60
2019-06-27T11:04:17.785Z,3.50
2019-06-27T11:06:47.871Z,3.46
2019-06-27T11:09:17.743Z,3.40
2019-06-27T11:11:47.771Z,2.80
2019-06-27T11:14:19.206Z,3.35
2019-06-27T11:16:48.776Z,4.12
2019-06-27T11:19:18.187Z,3.47
2019-06-27T11:21:48.187Z,3.80
2019-06-27T11:24:18.200Z,3.42
2019-06-27T11:26:48.640Z,3.62
2019-06-27T11:29:18.268Z,3.00
2019-06-27T11:31:48.235Z,3.30
2019-06-27T11:34:19.391Z,2.98
2019-06-27T11:36:48.843Z,2.90
2019-06-27T11:39:18.787Z,3.00
2019-06-27T11:41:48.713Z,2.90
2019-06-27T11:44:18.717Z,3.22
2019-06-27T11:46:48.954Z,3.15
2019-06-27T11:49:18.897Z,2.80
2019-06-27T11:51:48.913Z,2.98
2019-06-27T11:54:18.885Z,2.70
2019-06-27T11:56:49.014Z,2.32
2019-06-27T11:59:18.961Z,2.80
2019-06-27T12:01:48.975Z,2.75
2019-06-27T12:04:18.965Z,2.80
2019-06-27T12:06:48.977Z,3.00
2019-06-27T12:09:19.134Z,2.87
2019-06-27T12:11:49.078Z,3.20
2019-06-27T12:14:19.130Z,3.45
2019-06-27T12:16:49.441Z,2.77
2019-06-27T12:19:19.276Z,2.94
2019-06-27T12:21:49.832Z,2.92
2019-06-27T12:24:19.346Z,2.70
2019-06-27T12:26:49.214Z,2.87
2019-06-27T12:29:19.354Z,2.58
2019-06-27T12:31:51.679Z,2.30
2019-06-27T12:34:20.672Z,2.85
2019-06-27T12:36:50.141Z,2.90
2019-06-27T12:39:19.603Z,2.58
2019-06-27T12:41:49.864Z,3.00
2019-06-27T12:44:19.961Z,2.60
2019-06-27T12:46:49.467Z,2.77
2019-06-27T12:49:19.980Z,2.62
2019-06-27T12:51:49.778Z,2.50
2019-06-27T12:54:19.730Z,3.40
2019-06-27T12:56:49.653Z,3.12
2019-06-27T12:59:19.760Z,2.80
2019-06-27T13:01:49.776Z,2.92
2019-06-27T13:04:23.861Z,2.80
2019-06-27T13:06:51.947Z,3.05
2019-06-27T13:09:22.875Z,2.83
2019-06-27T13:11:52.313Z,2.70
2019-06-27T13:14:21.726Z,2.60
2019-06-27T13:16:52.407Z,2.75
2019-06-27T13:19:21.775Z,2.85
2019-06-27T13:21:51.173Z,2.75
2019-06-27T13:24:20.535Z,2.40
2019-06-27T13:26:50.303Z,2.90
2019-06-27T13:29:20.344Z,2.85
2019-06-27T13:31:50.292Z,2.40
2019-06-27T13:34:20.320Z,2.92
2019-06-27T13:36:52.596Z,2.77
2019-06-27T13:39:22.044Z,3.00
2019-06-27T13:41:51.507Z,2.67
2019-06-27T13:44:20.930Z,2.50
2019-06-27T13:46:50.432Z,2.20
2019-06-27T13:49:20.398Z,2.40
2019-06-27T13:51:50.394Z,2.75
2019-06-27T13:54:20.462Z,2.20
2019-06-27T13:56:50.495Z,2.55
2019-06-27T13:59:20.464Z,2.77
2019-06-27T14:01:50.389Z,2.20
2019-06-27T14:04:24.136Z,2.40
2019-06-27T14:06:53.117Z,2.30
2019-06-27T14:09:23.884Z,2.30
2019-06-27T14:11:53.534Z,2.27
2019-06-27T14:14:23.059Z,2.25
2019-06-27T14:16:54.323Z,2.00
2019-06-27T14:19:23.729Z,2.70
2019-06-27T14:21:53.536Z,2.65
2019-06-27T14:24:22.951Z,2.50
2019-06-27T14:26:52.326Z,2.77
2019-06-27T14:29:21.754Z,2.80
2019-06-27T14:31:51.171Z,2.00
2019-06-27T14:34:20.852Z,2.30
2019-06-27T14:36:54.213Z,2.92
2019-06-27T14:39:22.188Z,2.10
2019-06-27T14:41:51.659Z,2.40
2019-06-27T14:44:21.099Z,2.35
2019-06-27T14:46:51.143Z,2.25
2019-06-27T14:49:21.078Z,1.98
2019-06-27T14:51:51.177Z,1.90
2019-06-27T14:54:21.441Z,2.42
2019-06-27T14:56:51.441Z,2.60
2019-06-27T14:59:22.757Z,1.90
2019-06-27T15:01:52.205Z,2.20
2019-06-27T15:04:21.666Z,2.12
2019-06-27T15:06:51.736Z,2.22
2019-06-27T15:09:21.679Z,2.33
2019-06-27T15:11:51.808Z,2.10
2019-06-27T15:14:21.780Z,2.10
2019-06-27T15:16:51.901Z,2.05
2019-06-27T15:19:21.817Z,2.50
2019-06-27T15:21:51.952Z,2.50
2019-06-27T15:24:21.976Z,2.30
2019-06-27T15:26:51.945Z,2.12
2019-06-27T15:29:22.067Z,1.98
2019-06-27T15:31:52.044Z,1.85
2019-06-27T15:34:22.061Z,2.02
2019-06-27T15:36:52.106Z,2.40
2019-06-27T15:39:22.112Z,2.50
2019-06-27T15:41:54.177Z,2.40
2019-06-27T15:44:23.683Z,2.40
2019-06-27T15:46:54.493Z,2.40
2019-06-27T15:49:24.309Z,2.20
2019-06-27T15:51:53.732Z,2.12
2019-06-27T15:54:23.478Z,2.70
2019-06-27T15:56:53.256Z,2.08
2019-06-27T15:59:22.645Z,2.17
2019-06-27T16:01:52.381Z,2.50
2019-06-27T16:04:32.344Z,4.90
2019-06-27T16:07:04.018Z,2.40
2019-06-27T16:09:33.466Z,3.00
2019-06-27T16:12:02.985Z,2.33
2019-06-27T16:14:32.360Z,2.57
2019-06-27T16:17:01.834Z,3.10
2019-06-27T16:19:31.296Z,2.40
2019-06-27T16:22:00.744Z,2.05
2019-06-27T16:24:30.582Z,2.73
2019-06-27T16:27:00.095Z,2.27
2019-06-27T16:29:29.695Z,2.40
2019-06-27T16:32:00.285Z,2.80
2019-06-27T16:34:29.783Z,2.57
2019-06-27T16:36:59.244Z,3.70
2019-06-27T16:39:28.700Z,2.60
2019-06-27T16:41:58.090Z,4.00
2019-06-27T16:44:27.496Z,4.04
2019-06-27T16:46:56.942Z,2.20
2019-06-27T16:49:28.141Z,2.30
2019-06-27T16:51:59.943Z,2.26
2019-06-27T16:54:29.415Z,8.35
2019-06-27T16:56:58.883Z,2.77
2019-06-27T16:59:28.278Z,2.62
2019-06-27T17:01:57.751Z,2.50
2019-06-27T17:04:27.195Z,2.50
2019-06-27T17:06:56.565Z,2.27
2019-06-27T17:09:26.003Z,2.50
2019-06-27T17:11:55.400Z,2.35
2019-06-27T17:14:28.012Z,2.40
2019-06-27T17:16:57.560Z,2.10
2019-06-27T17:19:27.062Z,2.15
2019-06-27T17:21:56.604Z,2.55
2019-06-27T17:24:26.004Z,2.50
2019-06-27T17:26:55.439Z,2.40
2019-06-27T17:29:24.871Z,2.90
2019-06-27T17:31:54.289Z,2.92
2019-06-27T17:34:24.073Z,2.50
2019-06-27T17:36:58.157Z,2.85
2019-06-27T17:39:27.874Z,2.17
2019-06-27T17:41:57.256Z,2.08
2019-06-27T17:44:26.731Z,2.10
2019-06-27T17:46:56.419Z,2.02
2019-06-27T17:49:26.919Z,3.37
2019-06-27T17:51:56.706Z,2.60
2019-06-27T17:54:26.199Z,1.92
2019-06-27T17:56:55.688Z,2.65
2019-06-27T17:59:25.617Z,3.75
2019-06-27T18:01:55.062Z,2.22
2019-06-27T18:04:24.548Z,2.30
2019-06-27T18:06:54.629Z,2.12
2019-06-27T18:09:24.624Z,2.20
2019-06-27T18:11:54.924Z,2.12
2019-06-27T18:14:24.838Z,2.10
2019-06-27T18:16:55.333Z,2.40
2019-06-27T18:19:24.866Z,2.35
2019-06-27T18:21:54.887Z,2.40
2019-06-27T18:24:24.933Z,2.22
2019-06-27T18:26:54.880Z,2.45
2019-06-27T18:29:25.027Z,2.55
2019-06-27T18:31:55.019Z,2.55
2019-06-27T18:34:27.842Z,2.30
2019-06-27T18:36:57.232Z,3.33
2019-06-27T18:39:26.764Z,3.55
2019-06-27T18:41:56.166Z,2.70
2019-06-27T18:44:25.605Z,2.80
2019-06-27T18:46:55.189Z,2.87
2019-06-27T18:49:25.200Z,2.90
2019-06-27T18:51:55.206Z,2.77
2019-06-27T18:54:25.328Z,2.58
2019-06-27T18:56:55.399Z,3.10
2019-06-27T18:59:25.362Z,3.45
2019-06-27T19:01:55.559Z,3.15
2019-06-27T19:04:25.526Z,3.18
2019-06-27T19:06:57.768Z,3.17
2019-06-27T19:09:27.186Z,3.08
2019-06-27T19:11:56.638Z,2.87
2019-06-27T19:14:26.092Z,2.58
2019-06-27T19:16:55.649Z,2.75
2019-06-27T19:19:28.154Z,3.00
2019-06-27T19:22:22.410Z,2.70
2019-06-27T19:25:03.920Z,3.17
2019-06-27T19:27:34.601Z,2.92
2019-06-27T19:30:04.509Z,2.42
2019-06-27T19:32:34.100Z,2.42
2019-06-27T19:35:03.419Z,2.63
2019-06-27T19:37:32.955Z,2.83
2019-06-27T19:40:02.444Z,2.33
2019-06-27T19:42:31.865Z,2.40
2019-06-27T19:45:01.274Z,2.10
2019-06-27T19:47:30.634Z,2.20
2019-06-27T19:50:00.065Z,2.30
2019-06-27T19:52:31.790Z,2.33
2019-06-27T19:55:01.220Z,2.20
2019-06-27T19:57:32.247Z,2.00
2019-06-27T20:00:01.679Z,2.20
2019-06-27T20:02:31.110Z,2.60
2019-06-27T20:05:00.490Z,2.07
2019-06-27T20:07:29.870Z,2.10
2019-06-27T20:09:59.246Z,1.97
2019-06-27T20:12:28.678Z,2.23
2019-06-27T20:14:58.110Z,2.10
2019-06-27T20:17:27.440Z,1.87
2019-06-27T20:19:56.840Z,2.03
2019-06-27T20:22:26.295Z,2.00
2019-06-27T20:24:56.445Z,1.90
2019-06-27T20:27:26.474Z,1.90
2019-06-27T20:29:56.513Z,1.87
2019-06-27T20:32:26.415Z,2.00
2019-06-27T20:34:56.469Z,2.03
2019-06-27T20:37:27.192Z,1.73
2019-06-27T20:39:56.807Z,2.17
2019-06-27T20:42:26.535Z,1.80
2019-06-27T20:44:56.524Z,2.02
2019-06-27T20:47:26.654Z,1.90
2019-06-27T20:49:56.603Z,1.70
2019-06-27T20:52:26.587Z,1.90
2019-06-27T20:54:58.959Z,1.80
2019-06-27T20:57:28.447Z,2.23
2019-06-27T20:59:57.874Z,2.03
2019-06-27T21:02:27.367Z,2.10
2019-06-27T21:04:56.859Z,2.87
2019-06-27T21:07:26.939Z,2.90
2019-06-27T21:09:56.906Z,3.03
2019-06-27T21:12:27.797Z,3.10
2019-06-27T21:14:57.266Z,3.27
2019-06-27T21:17:27.053Z,3.15
2019-06-27T21:19:57.031Z,3.07
2019-06-27T21:22:27.385Z,3.30
2019-06-27T21:24:57.207Z,3.87
2019-06-27T21:27:27.490Z,3.33
2019-06-27T21:29:57.159Z,3.90
2019-06-27T21:32:31.798Z,4.00
2019-06-27T21:34:58.447Z,3.50
2019-06-27T21:37:27.802Z,3.70
2019-06-27T21:39:57.313Z,3.43
2019-06-27T21:42:27.264Z,3.80
2019-06-27T21:44:57.497Z,3.70
2019-06-27T21:47:27.654Z,3.70
2019-06-27T21:49:57.523Z,3.47
2019-06-27T21:52:27.485Z,3.67
2019-06-27T21:54:57.572Z,3.90
2019-06-27T21:57:27.566Z,4.00
2019-06-27T21:59:57.677Z,3.50
2019-06-27T22:02:27.703Z,3.62
2019-06-27T22:04:57.659Z,4.10
2019-06-27T22:07:27.735Z,4.07
2019-06-27T22:09:57.692Z,4.08
2019-06-27T22:12:27.752Z,3.80
2019-06-27T22:14:57.169Z,3.80
2019-06-27T22:17:26.548Z,3.60
2019-06-27T22:19:55.933Z,3.70
2019-06-27T22:22:25.454Z,3.93
2019-06-27T22:24:54.833Z,3.97
2019-06-27T22:27:24.238Z,3.60
2019-06-27T22:29:53.655Z,4.00
2019-06-27T22:32:23.072Z,3.43
2019-06-27T22:34:52.452Z,4.20
2019-06-27T22:37:26.692Z,3.60
2019-06-27T22:40:13.752Z,3.87
2019-06-27T22:43:04.244Z,3.40
2019-06-27T22:45:49.778Z,4.07
2019-06-27T22:48:18.636Z,3.43
2019-06-27T22:51:10.969Z,3.90
2019-06-27T22:54:02.246Z,3.43
2019-06-27T22:56:31.763Z,3.60
2019-06-27T22:59:01.142Z,3.50
2019-06-27T23:01:30.517Z,3.47
2019-06-27T23:03:59.882Z,3.63
2019-06-27T23:06:29.647Z,3.83
2019-06-27T23:08:59.534Z,4.03
2019-06-27T23:11:29.525Z,3.60
2019-06-27T23:13:59.603Z,3.42
2019-06-27T23:16:29.702Z,3.27
2019-06-27T23:18:59.673Z,3.53
2019-06-27T23:21:29.597Z,3.50
2019-06-27T23:23:59.803Z,4.12
2019-06-27T23:26:29.764Z,3.80
2019-06-27T23:29:02.033Z,3.73
2019-06-27T23:31:31.487Z,4.60
2019-06-27T23:34:00.863Z,4.73
2019-06-27T23:36:30.243Z,4.13
2019-06-27T23:38:59.839Z,3.97
2019-06-27T23:41:29.908Z,4.47
2019-06-27T23:43:59.909Z,3.67
2019-06-27T23:46:40.826Z,4.17
2019-06-27T23:49:10.776Z,4.00
2019-06-27T23:51:40.623Z,4.35
2019-06-27T23:54:09.982Z,4.03
2019-06-27T23:56:39.337Z,4.25
2019-06-27T23:59:08.806Z,4.20
